Flesherton, Canada
Current Conditions -  °F | °C
As of 10:00 PM on Friday 21 Nov 2014 (Local Time) from CYBN Reporting Station
Clear Clear  
Wind Chill:   Ceiling: Unl
Heat Index: 18°   Visibility: 9mi
Dew Point:   Wind: 8mph
Humidity: 68%   Direction: 180°S
Pressure: 30.31"   Gusts: NA
Location:  44.25°N, 80.55°W
Report Text: CYBN 220300Z AUTO 18007KT 9SM CLR M08/M13 A3031 RMK SLP281
Loading
Personal Weather Stations






























Interactive Weather Map New forecast layout! Learn more

10-Day Weather Forecast

Advertisements
Track Severe Weather on mobile